Greenpond, New Jersey
Current Conditions -  °F | °C
As of 10:53 PM on Saturday 25 Oct 2014 (Local Time) from KFWN Reporting Station
Broken Clouds Broken Clouds  
Wind Chill: 60°   Ceiling: 10000
Heat Index: 60°   Visibility: 10mi
Dew Point: 45°   Wind: 7mph
Humidity: 57%   Direction: 210°SSW
Pressure: 29.58"   Gusts: NA
Location:  41.058°N, 74.4257°W
Report Text: KFWN 260253Z AUTO 21006KT 10SM BKN100 16/07 A2958 RMK AO2 SLP014 T01560072 56012
Loading
Personal Weather Stations






























Interactive Weather Map
Tropical Storm Tracking
New forecast layout! Learn more

10-Day Weather Forecast

Advertisements
Track Severe Weather on mobile